RYR29WH LFRS-GMAD
Flight info
| Callsign | RYR29WH |
|---|---|
| Flight time | 2h 44m |
| Altitude | 35000 |
| Route | ERIGA DCT FUJTI DCT PEPET DCT BAKUP DCT BATAX DCT ALAGU/N0454F370 DCT GIMAL DCT AMSEL UR722 CSD UR975 EKTAL |
| Aircraft | B738/M-SDE2E3FGHIRWXY/LB1 |
Departure
| Time | 2026-05-04 19:44 |
|---|---|
| Airport | Nantes Atlantique Airport (LFRS) |
Arrival
| Time | 2026-05-04 22:28 |
|---|---|
| Airport | Al Massira Airport (GMAD) |
| Time | Latitude | Longitude | Altitude | Speed | Heading |
|---|---|---|---|---|---|
| 2026-05-04 19:24 | 47.15609 | -1.60049 | 86 ft | 0 kts | 44° |
| 2026-05-04 19:33 | 47.15605 | -1.60055 | 86 ft | 2 kts | 44° |
| 2026-05-04 19:33 | 47.15594 | -1.60071 | 86 ft | 2 kts | 44° |
| 2026-05-04 19:33 | 47.15583 | -1.60086 | 85 ft | 2 kts | 44° |
| 2026-05-04 19:33 | 47.15573 | -1.60103 | 85 ft | 2 kts | 64° |
| 2026-05-04 19:34 | 47.15568 | -1.60124 | 84 ft | 2 kts | 81° |
| 2026-05-04 19:34 | 47.15568 | -1.60146 | 84 ft | 2 kts | 99° |
| 2026-05-04 19:34 | 47.15572 | -1.60166 | 84 ft | 2 kts | 117° |
| 2026-05-04 19:34 | 47.15579 | -1.60186 | 83 ft | 2 kts | 102° |
| 2026-05-04 19:35 | 47.15581 | -1.60207 | 83 ft | 2 kts | 92° |
| 2026-05-04 19:35 | 47.15581 | -1.60229 | 82 ft | 2 kts | 78° |
| 2026-05-04 19:35 | 47.15577 | -1.60250 | 82 ft | 2 kts | 66° |
| 2026-05-04 19:35 | 47.15569 | -1.60269 | 82 ft | 2 kts | 53° |
| 2026-05-04 19:36 | 47.15559 | -1.60285 | 81 ft | 2 kts | 40° |
| 2026-05-04 19:36 | 47.15550 | -1.60295 | 81 ft | 0 kts | 31° |
| 2026-05-04 19:38 | 47.15551 | -1.60295 | 81 ft | 1 kts | 31° |
| 2026-05-04 19:38 | 47.15590 | -1.60275 | 81 ft | 10 kts | 355° |
| 2026-05-04 19:39 | 47.15673 | -1.60362 | 81 ft | 16 kts | 317° |
| 2026-05-04 19:39 | 47.15718 | -1.60483 | 83 ft | 12 kts | 248° |
| 2026-05-04 19:39 | 47.15645 | -1.60555 | 84 ft | 14 kts | 206° |
| 2026-05-04 19:39 | 47.15548 | -1.60629 | 84 ft | 17 kts | 208° |
| 2026-05-04 19:40 | 47.15436 | -1.60716 | 85 ft | 18 kts | 207° |
| 2026-05-04 19:40 | 47.15315 | -1.60809 | 87 ft | 20 kts | 207° |
| 2026-05-04 19:40 | 47.15185 | -1.60908 | 87 ft | 20 kts | 207° |
| 2026-05-04 19:40 | 47.15060 | -1.61003 | 87 ft | 19 kts | 207° |
| 2026-05-04 19:41 | 47.14941 | -1.61095 | 87 ft | 18 kts | 207° |
| 2026-05-04 19:41 | 47.14822 | -1.61185 | 87 ft | 21 kts | 208° |
| 2026-05-04 19:41 | 47.14676 | -1.61295 | 84 ft | 24 kts | 207° |
| 2026-05-04 19:41 | 47.14523 | -1.61412 | 80 ft | 25 kts | 207° |
| 2026-05-04 19:42 | 47.14368 | -1.61529 | 78 ft | 25 kts | 207° |
| 2026-05-04 19:42 | 47.14223 | -1.61639 | 77 ft | 21 kts | 207° |
| 2026-05-04 19:42 | 47.14145 | -1.61782 | 77 ft | 15 kts | 254° |
| 2026-05-04 19:42 | 47.14163 | -1.61921 | 77 ft | 13 kts | 326° |
| 2026-05-04 19:43 | 47.14247 | -1.61891 | 77 ft | 15 kts | 27° |
| 2026-05-04 19:43 | 47.14497 | -1.61701 | 80 ft | 73 kts | 26° |
| 2026-05-04 19:43 | 47.15144 | -1.61204 | 88 ft | 133 kts | 26° |
| 2026-05-04 19:43 | 47.16118 | -1.60464 | 110 ft | 179 kts | 26° |
| 2026-05-04 19:44 | 47.17213 | -1.59606 | 846 ft | 172 kts | 24° |
| 2026-05-04 19:44 | 47.18334 | -1.59204 | 1456 ft | 175 kts | 354° |
| 2026-05-04 19:44 | 47.19490 | -1.59746 | 2008 ft | 180 kts | 332° |
| 2026-05-04 19:44 | 47.20493 | -1.60974 | 2329 ft | 201 kts | 310° |
| 2026-05-04 19:45 | 47.21128 | -1.62927 | 2727 ft | 221 kts | 286° |
| 2026-05-04 19:45 | 47.21434 | -1.65205 | 3143 ft | 237 kts | 282° |
| 2026-05-04 19:45 | 47.21741 | -1.67631 | 3660 ft | 249 kts | 283° |
| 2026-05-04 19:45 | 47.22101 | -1.70173 | 4119 ft | 262 kts | 284° |
| 2026-05-04 19:46 | 47.22488 | -1.72803 | 4779 ft | 268 kts | 282° |
| 2026-05-04 19:46 | 47.22636 | -1.75549 | 5444 ft | 275 kts | 265° |
| 2026-05-04 19:46 | 47.22081 | -1.78258 | 6153 ft | 279 kts | 244° |
| 2026-05-04 19:46 | 47.21153 | -1.80755 | 6868 ft | 281 kts | 240° |
| 2026-05-04 19:47 | 47.20184 | -1.83248 | 7573 ft | 284 kts | 241° |
| 2026-05-04 19:47 | 47.19248 | -1.85793 | 8222 ft | 286 kts | 242° |
| 2026-05-04 19:47 | 47.18332 | -1.88386 | 8863 ft | 289 kts | 242° |
| 2026-05-04 19:47 | 47.17405 | -1.90983 | 9551 ft | 292 kts | 241° |
| 2026-05-04 19:48 | 47.16457 | -1.93643 | 10212 ft | 294 kts | 242° |
| 2026-05-04 19:48 | 47.15518 | -1.96347 | 10674 ft | 303 kts | 242° |
| 2026-05-04 19:48 | 47.14512 | -1.99093 | 11092 ft | 314 kts | 237° |
| 2026-05-04 19:48 | 47.13119 | -2.01685 | 11453 ft | 326 kts | 225° |
| 2026-05-04 19:49 | 47.11489 | -2.04063 | 11830 ft | 338 kts | 223° |
| 2026-05-04 19:49 | 47.09788 | -2.06508 | 12173 ft | 352 kts | 224° |
| 2026-05-04 19:49 | 47.08059 | -2.09144 | 12565 ft | 363 kts | 226° |
| 2026-05-04 19:49 | 47.06331 | -2.11894 | 13141 ft | 369 kts | 226° |
| 2026-05-04 19:50 | 47.04629 | -2.14670 | 13926 ft | 369 kts | 227° |
| 2026-05-04 19:50 | 47.02937 | -2.17472 | 14611 ft | 372 kts | 227° |
| 2026-05-04 19:50 | 47.01216 | -2.20320 | 15313 ft | 375 kts | 226° |
| 2026-05-04 19:50 | 46.99499 | -2.23155 | 15969 ft | 378 kts | 226° |
| 2026-05-04 19:51 | 46.97692 | -2.26010 | 16609 ft | 381 kts | 223° |
| 2026-05-04 19:51 | 46.95725 | -2.28590 | 17288 ft | 381 kts | 215° |
| 2026-05-04 19:51 | 46.93557 | -2.30736 | 17988 ft | 381 kts | 209° |
| 2026-05-04 19:51 | 46.91247 | -2.32641 | 18610 ft | 383 kts | 206° |
| 2026-05-04 19:52 | 46.88874 | -2.34425 | 19254 ft | 385 kts | 205° |
| 2026-05-04 19:52 | 46.86498 | -2.36167 | 19946 ft | 385 kts | 205° |
| 2026-05-04 19:52 | 46.84108 | -2.37995 | 20546 ft | 388 kts | 207° |
| 2026-05-04 19:52 | 46.81768 | -2.39951 | 21165 ft | 391 kts | 208° |
| 2026-05-04 19:53 | 46.79448 | -2.41976 | 21757 ft | 393 kts | 209° |
| 2026-05-04 19:53 | 46.77123 | -2.44035 | 22304 ft | 396 kts | 209° |
| 2026-05-04 19:53 | 46.74769 | -2.46126 | 22883 ft | 398 kts | 209° |
| 2026-05-04 19:53 | 46.72391 | -2.48236 | 23382 ft | 401 kts | 209° |
| 2026-05-04 19:54 | 46.69995 | -2.50352 | 23896 ft | 404 kts | 209° |
| 2026-05-04 19:54 | 46.67605 | -2.52454 | 24400 ft | 406 kts | 209° |
| 2026-05-04 19:54 | 46.65191 | -2.54568 | 24875 ft | 409 kts | 209° |
| 2026-05-04 19:54 | 46.62736 | -2.56712 | 25404 ft | 410 kts | 209° |
| 2026-05-04 19:55 | 46.60296 | -2.58837 | 25768 ft | 415 kts | 209° |
| 2026-05-04 19:55 | 46.57800 | -2.61006 | 26246 ft | 417 kts | 209° |
| 2026-05-04 19:55 | 46.55314 | -2.63162 | 26677 ft | 419 kts | 209° |
| 2026-05-04 19:55 | 46.52812 | -2.65327 | 27045 ft | 423 kts | 208° |
| 2026-05-04 19:56 | 46.50258 | -2.67534 | 27446 ft | 426 kts | 208° |
| 2026-05-04 19:56 | 46.47709 | -2.69734 | 27894 ft | 427 kts | 208° |
| 2026-05-04 19:56 | 46.45161 | -2.71931 | 28284 ft | 429 kts | 208° |
| 2026-05-04 19:56 | 46.42596 | -2.74139 | 28556 ft | 434 kts | 208° |
| 2026-05-04 19:57 | 46.40014 | -2.76360 | 28936 ft | 436 kts | 208° |
| 2026-05-04 19:57 | 46.37380 | -2.78622 | 29277 ft | 439 kts | 208° |
| 2026-05-04 19:57 | 46.34767 | -2.80864 | 29677 ft | 440 kts | 208° |
| 2026-05-04 19:57 | 46.32169 | -2.83093 | 30205 ft | 438 kts | 208° |
| 2026-05-04 19:58 | 46.29543 | -2.85345 | 30647 ft | 437 kts | 208° |
| 2026-05-04 19:58 | 46.26963 | -2.87557 | 31049 ft | 436 kts | 208° |
| 2026-05-04 19:58 | 46.24352 | -2.89792 | 31357 ft | 436 kts | 208° |
| 2026-05-04 19:58 | 46.21735 | -2.92030 | 31619 ft | 438 kts | 208° |
| 2026-05-04 19:59 | 46.19141 | -2.94247 | 32048 ft | 435 kts | 208° |
| 2026-05-04 19:59 | 46.16551 | -2.96459 | 32419 ft | 434 kts | 208° |
| 2026-05-04 19:59 | 46.13961 | -2.98669 | 32663 ft | 434 kts | 208° |
| 2026-05-04 19:59 | 46.11344 | -3.00899 | 32905 ft | 435 kts | 208° |
| 2026-05-04 20:00 | 46.08737 | -3.03118 | 33069 ft | 435 kts | 209° |
| 2026-05-04 20:00 | 46.06149 | -3.05320 | 33255 ft | 436 kts | 209° |
| 2026-05-04 20:00 | 46.03572 | -3.07510 | 33569 ft | 434 kts | 209° |
| 2026-05-04 20:00 | 46.00974 | -3.09716 | 33798 ft | 434 kts | 209° |
| 2026-05-04 20:01 | 45.98392 | -3.11904 | 33982 ft | 434 kts | 209° |
| 2026-05-04 20:01 | 45.95774 | -3.14120 | 34211 ft | 435 kts | 209° |
| 2026-05-04 20:01 | 45.93183 | -3.16311 | 34372 ft | 436 kts | 209° |
| 2026-05-04 20:01 | 45.90562 | -3.18523 | 34582 ft | 437 kts | 209° |
| 2026-05-04 20:02 | 45.87967 | -3.20712 | 34895 ft | 435 kts | 210° |
| 2026-05-04 20:02 | 45.82757 | -3.25100 | 34986 ft | 437 kts | 210° |
| 2026-05-04 20:03 | 45.77543 | -3.29483 | 34966 ft | 434 kts | 210° |
| 2026-05-04 20:03 | 45.72333 | -3.33853 | 34977 ft | 436 kts | 210° |
| 2026-05-04 20:04 | 45.67094 | -3.38237 | 34995 ft | 435 kts | 210° |
| 2026-05-04 20:04 | 45.61890 | -3.42582 | 34992 ft | 435 kts | 210° |
| 2026-05-04 20:05 | 45.56654 | -3.46945 | 35006 ft | 436 kts | 210° |
| 2026-05-04 20:05 | 45.51461 | -3.51262 | 35025 ft | 437 kts | 210° |
| 2026-05-04 20:05 | 45.48819 | -3.53456 | 35361 ft | 434 kts | 210° |
| 2026-05-04 20:06 | 45.46225 | -3.55606 | 35587 ft | 433 kts | 210° |
| 2026-05-04 20:06 | 45.43644 | -3.57745 | 35756 ft | 434 kts | 210° |
| 2026-05-04 20:06 | 45.41029 | -3.59909 | 35910 ft | 435 kts | 210° |
| 2026-05-04 20:06 | 45.38413 | -3.62071 | 36115 ft | 435 kts | 210° |
| 2026-05-04 20:07 | 45.35792 | -3.64235 | 36274 ft | 436 kts | 210° |
| 2026-05-04 20:07 | 45.33189 | -3.66381 | 36415 ft | 436 kts | 210° |
| 2026-05-04 20:07 | 45.30580 | -3.68531 | 36620 ft | 436 kts | 210° |
| 2026-05-04 20:07 | 45.27965 | -3.70683 | 36783 ft | 436 kts | 210° |
| 2026-05-04 20:08 | 45.25342 | -3.72839 | 36944 ft | 436 kts | 210° |
| 2026-05-04 20:08 | 45.20078 | -3.77160 | 37006 ft | 441 kts | 210° |
| 2026-05-04 20:09 | 45.14715 | -3.81552 | 36999 ft | 446 kts | 210° |
| 2026-05-04 20:09 | 45.09348 | -3.85938 | 36997 ft | 449 kts | 210° |
| 2026-05-04 20:10 | 45.04020 | -3.90372 | 36984 ft | 447 kts | 211° |
| 2026-05-04 20:10 | 44.98726 | -3.94918 | 36987 ft | 446 kts | 211° |
| 2026-05-04 20:11 | 44.93426 | -3.99488 | 36995 ft | 448 kts | 212° |
| 2026-05-04 20:11 | 44.88127 | -4.04031 | 36991 ft | 444 kts | 211° |
| 2026-05-04 20:12 | 44.82876 | -4.08508 | 36988 ft | 445 kts | 211° |
| 2026-05-04 20:12 | 44.77558 | -4.13025 | 36974 ft | 446 kts | 211° |
| 2026-05-04 20:13 | 44.72264 | -4.17510 | 36990 ft | 447 kts | 212° |
| 2026-05-04 20:13 | 44.66935 | -4.22014 | 36984 ft | 447 kts | 212° |
| 2026-05-04 20:14 | 44.61634 | -4.26485 | 36999 ft | 448 kts | 212° |
| 2026-05-04 20:14 | 44.56320 | -4.30958 | 36989 ft | 445 kts | 212° |
| 2026-05-04 20:15 | 44.51014 | -4.35413 | 37002 ft | 447 kts | 212° |
| 2026-05-04 20:15 | 44.45670 | -4.39891 | 37002 ft | 446 kts | 212° |
| 2026-05-04 20:16 | 44.40379 | -4.44316 | 36993 ft | 444 kts | 212° |
| 2026-05-04 20:16 | 44.35083 | -4.48788 | 36989 ft | 446 kts | 212° |
| 2026-05-04 20:17 | 44.29799 | -4.53270 | 37006 ft | 447 kts | 212° |
| 2026-05-04 20:17 | 44.24502 | -4.57756 | 36998 ft | 445 kts | 212° |
| 2026-05-04 20:18 | 44.19185 | -4.62245 | 36987 ft | 446 kts | 213° |
| 2026-05-04 20:18 | 44.13867 | -4.66726 | 37010 ft | 448 kts | 212° |
| 2026-05-04 20:19 | 44.08586 | -4.71163 | 37016 ft | 447 kts | 212° |
| 2026-05-04 20:19 | 44.03273 | -4.75617 | 37009 ft | 445 kts | 212° |
| 2026-05-04 20:20 | 43.97977 | -4.80044 | 36999 ft | 446 kts | 212° |
| 2026-05-04 20:20 | 43.92661 | -4.84478 | 36993 ft | 447 kts | 212° |
| 2026-05-04 20:21 | 43.87348 | -4.88898 | 37010 ft | 447 kts | 212° |
| 2026-05-04 20:21 | 43.79397 | -4.95499 | 36993 ft | 444 kts | 212° |
| 2026-05-04 20:22 | 43.74113 | -4.99873 | 36999 ft | 444 kts | 212° |
| 2026-05-04 20:22 | 43.68779 | -5.04281 | 37002 ft | 447 kts | 212° |
| 2026-05-04 20:23 | 43.63448 | -5.08676 | 36994 ft | 446 kts | 212° |
| 2026-05-04 20:23 | 43.58149 | -5.13033 | 37014 ft | 445 kts | 212° |
| 2026-05-04 20:24 | 43.52858 | -5.17380 | 36994 ft | 445 kts | 212° |
| 2026-05-04 20:24 | 43.47527 | -5.21746 | 37008 ft | 444 kts | 212° |
| 2026-05-04 20:25 | 43.42215 | -5.26083 | 37006 ft | 445 kts | 212° |
| 2026-05-04 20:25 | 43.36894 | -5.30423 | 37019 ft | 443 kts | 213° |
| 2026-05-04 20:26 | 43.31590 | -5.34737 | 37035 ft | 444 kts | 213° |
| 2026-05-04 20:26 | 43.26315 | -5.39020 | 37017 ft | 443 kts | 213° |
| 2026-05-04 20:27 | 43.20968 | -5.43352 | 37028 ft | 446 kts | 213° |
| 2026-05-04 20:27 | 43.15666 | -5.47641 | 37005 ft | 444 kts | 213° |
| 2026-05-04 20:28 | 43.10379 | -5.51912 | 37018 ft | 445 kts | 213° |
| 2026-05-04 20:28 | 43.05046 | -5.56211 | 36993 ft | 444 kts | 213° |
| 2026-05-04 20:29 | 42.99741 | -5.60475 | 36978 ft | 444 kts | 213° |
| 2026-05-04 20:29 | 42.94447 | -5.64723 | 36997 ft | 443 kts | 213° |
| 2026-05-04 20:30 | 42.89127 | -5.68985 | 36984 ft | 443 kts | 212° |
| 2026-05-04 20:30 | 42.83788 | -5.73253 | 37000 ft | 445 kts | 212° |
| 2026-05-04 20:31 | 42.78495 | -5.77476 | 36997 ft | 443 kts | 213° |
| 2026-05-04 20:31 | 42.73155 | -5.81729 | 37005 ft | 444 kts | 213° |
| 2026-05-04 20:32 | 42.67858 | -5.85938 | 37001 ft | 444 kts | 213° |
| 2026-05-04 20:32 | 42.62515 | -5.90183 | 37001 ft | 444 kts | 213° |
| 2026-05-04 20:33 | 42.57202 | -5.94390 | 37002 ft | 445 kts | 213° |
| 2026-05-04 20:33 | 42.51866 | -5.98605 | 37008 ft | 444 kts | 213° |
| 2026-05-04 20:34 | 42.46547 | -6.02797 | 37005 ft | 443 kts | 213° |
| 2026-05-04 20:34 | 42.41205 | -6.07002 | 36996 ft | 444 kts | 213° |
| 2026-05-04 20:35 | 42.35851 | -6.11206 | 37000 ft | 445 kts | 213° |
| 2026-05-04 20:35 | 42.30485 | -6.15404 | 36995 ft | 443 kts | 213° |
| 2026-05-04 20:36 | 42.25149 | -6.19570 | 36998 ft | 444 kts | 213° |
| 2026-05-04 20:36 | 42.19797 | -6.23743 | 36990 ft | 445 kts | 213° |
| 2026-05-04 20:37 | 42.14462 | -6.27894 | 36998 ft | 446 kts | 213° |
| 2026-05-04 20:37 | 42.09080 | -6.32077 | 37006 ft | 444 kts | 213° |
| 2026-05-04 20:38 | 42.03765 | -6.36199 | 37012 ft | 442 kts | 213° |
| 2026-05-04 20:38 | 41.98462 | -6.40305 | 37028 ft | 444 kts | 214° |
| 2026-05-04 20:39 | 41.93146 | -6.44412 | 37002 ft | 440 kts | 214° |
| 2026-05-04 20:39 | 41.87820 | -6.48522 | 37030 ft | 444 kts | 214° |
| 2026-05-04 20:40 | 41.82483 | -6.52632 | 37046 ft | 442 kts | 214° |
| 2026-05-04 20:40 | 41.77175 | -6.56708 | 37026 ft | 440 kts | 214° |
| 2026-05-04 20:41 | 41.71806 | -6.60674 | 37040 ft | 445 kts | 210° |
| 2026-05-04 20:41 | 41.66002 | -6.63517 | 37029 ft | 448 kts | 199° |
| 2026-05-04 20:42 | 41.59890 | -6.65400 | 37069 ft | 453 kts | 196° |
| 2026-05-04 20:42 | 41.53744 | -6.67068 | 37020 ft | 449 kts | 196° |
| 2026-05-04 20:43 | 41.47609 | -6.68748 | 37050 ft | 450 kts | 197° |
| 2026-05-04 20:43 | 41.41497 | -6.70462 | 37051 ft | 450 kts | 197° |
| 2026-05-04 20:44 | 41.35364 | -6.72205 | 37038 ft | 451 kts | 197° |
| 2026-05-04 20:44 | 41.29280 | -6.73941 | 37021 ft | 448 kts | 197° |
| 2026-05-04 20:45 | 41.23170 | -6.75688 | 36927 ft | 450 kts | 198° |
| 2026-05-04 20:45 | 41.20154 | -6.76551 | 37064 ft | 450 kts | 197° |
| 2026-05-04 20:45 | 41.17075 | -6.77431 | 37039 ft | 449 kts | 197° |
| 2026-05-04 20:46 | 41.10989 | -6.79167 | 37039 ft | 450 kts | 197° |
| 2026-05-04 20:46 | 41.04906 | -6.80896 | 37022 ft | 448 kts | 198° |
| 2026-05-04 20:47 | 41.01821 | -6.81774 | 37166 ft | 450 kts | 198° |
| 2026-05-04 20:47 | 40.98794 | -6.82636 | 36917 ft | 451 kts | 198° |
| 2026-05-04 20:47 | 40.92712 | -6.84356 | 37162 ft | 449 kts | 198° |
| 2026-05-04 20:48 | 40.89627 | -6.85231 | 37058 ft | 450 kts | 198° |
| 2026-05-04 20:48 | 40.86588 | -6.86091 | 37047 ft | 451 kts | 198° |
| 2026-05-04 20:48 | 40.80496 | -6.87808 | 37060 ft | 446 kts | 198° |
| 2026-05-04 20:49 | 40.74398 | -6.89531 | 37024 ft | 450 kts | 198° |
| 2026-05-04 20:49 | 40.68278 | -6.91254 | 37033 ft | 447 kts | 198° |
| 2026-05-04 20:50 | 40.62236 | -6.92948 | 37052 ft | 448 kts | 198° |
| 2026-05-04 20:50 | 40.56125 | -6.94663 | 37043 ft | 447 kts | 199° |
| 2026-05-04 20:51 | 40.50081 | -6.96352 | 37019 ft | 444 kts | 198° |
| 2026-05-04 20:51 | 40.44026 | -6.98042 | 36999 ft | 445 kts | 199° |
| 2026-05-04 20:52 | 40.37967 | -6.99734 | 37039 ft | 447 kts | 199° |
| 2026-05-04 20:52 | 40.31865 | -7.01433 | 37036 ft | 445 kts | 199° |
| 2026-05-04 20:53 | 40.25804 | -7.03110 | 37032 ft | 441 kts | 199° |
| 2026-05-04 20:53 | 40.19771 | -7.04786 | 37047 ft | 443 kts | 199° |
| 2026-05-04 20:54 | 40.13741 | -7.06456 | 37045 ft | 442 kts | 199° |
| 2026-05-04 20:54 | 40.07738 | -7.08114 | 37080 ft | 442 kts | 199° |
| 2026-05-04 20:55 | 40.01672 | -7.09792 | 37069 ft | 444 kts | 199° |
| 2026-05-04 20:55 | 39.95662 | -7.11442 | 37039 ft | 439 kts | 200° |
| 2026-05-04 20:56 | 39.89688 | -7.13081 | 37023 ft | 438 kts | 200° |
| 2026-05-04 20:56 | 39.83719 | -7.14721 | 37055 ft | 439 kts | 200° |
| 2026-05-04 20:57 | 39.77791 | -7.16346 | 37035 ft | 439 kts | 200° |
| 2026-05-04 20:57 | 39.71810 | -7.17981 | 37061 ft | 440 kts | 200° |
| 2026-05-04 20:58 | 39.65826 | -7.19613 | 37014 ft | 437 kts | 200° |
| 2026-05-04 20:58 | 39.59883 | -7.21229 | 37083 ft | 437 kts | 200° |
| 2026-05-04 20:59 | 39.53899 | -7.22858 | 37021 ft | 437 kts | 200° |
| 2026-05-04 20:59 | 39.47956 | -7.24472 | 37048 ft | 435 kts | 200° |
| 2026-05-04 21:00 | 39.42075 | -7.26058 | 37057 ft | 433 kts | 200° |
| 2026-05-04 21:00 | 39.36118 | -7.27675 | 37084 ft | 437 kts | 200° |
| 2026-05-04 21:01 | 39.30209 | -7.29270 | 37080 ft | 436 kts | 200° |
| 2026-05-04 21:01 | 39.24263 | -7.30871 | 37108 ft | 434 kts | 200° |
| 2026-05-04 21:02 | 39.18348 | -7.32460 | 37071 ft | 434 kts | 200° |
| 2026-05-04 21:02 | 39.12415 | -7.34054 | 37041 ft | 432 kts | 200° |
| 2026-05-04 21:03 | 39.06587 | -7.35613 | 37089 ft | 431 kts | 201° |
| 2026-05-04 21:03 | 39.00680 | -7.37199 | 37113 ft | 432 kts | 200° |
| 2026-05-04 21:04 | 38.94765 | -7.38778 | 37091 ft | 431 kts | 200° |
| 2026-05-04 21:04 | 38.88904 | -7.40342 | 37041 ft | 431 kts | 200° |
| 2026-05-04 21:05 | 38.83030 | -7.41909 | 37082 ft | 431 kts | 200° |
| 2026-05-04 21:05 | 38.77187 | -7.43460 | 37093 ft | 430 kts | 200° |
| 2026-05-04 21:06 | 38.71304 | -7.45023 | 37096 ft | 431 kts | 200° |
| 2026-05-04 21:06 | 38.65429 | -7.46581 | 37093 ft | 431 kts | 200° |
| 2026-05-04 21:07 | 38.59547 | -7.48135 | 37083 ft | 431 kts | 200° |
| 2026-05-04 21:07 | 38.53686 | -7.49683 | 37082 ft | 432 kts | 200° |
| 2026-05-04 21:08 | 38.47781 | -7.51241 | 37079 ft | 433 kts | 200° |
| 2026-05-04 21:08 | 38.41919 | -7.52781 | 37074 ft | 432 kts | 200° |
| 2026-05-04 21:09 | 38.36037 | -7.54326 | 37072 ft | 431 kts | 200° |
| 2026-05-04 21:09 | 38.30149 | -7.55871 | 37074 ft | 432 kts | 200° |
| 2026-05-04 21:10 | 38.24287 | -7.57406 | 37091 ft | 431 kts | 200° |
| 2026-05-04 21:10 | 38.18375 | -7.58952 | 37082 ft | 432 kts | 200° |
| 2026-05-04 21:11 | 38.12479 | -7.60491 | 37075 ft | 433 kts | 200° |
| 2026-05-04 21:11 | 38.06602 | -7.62047 | 37088 ft | 431 kts | 201° |
| 2026-05-04 21:12 | 38.00753 | -7.63777 | 37067 ft | 430 kts | 202° |
| 2026-05-04 21:12 | 37.94937 | -7.65560 | 37084 ft | 430 kts | 201° |
| 2026-05-04 21:13 | 37.89145 | -7.67326 | 37081 ft | 431 kts | 201° |
| 2026-05-04 21:13 | 37.83289 | -7.69093 | 37077 ft | 430 kts | 201° |
| 2026-05-04 21:14 | 37.77476 | -7.70833 | 37085 ft | 431 kts | 201° |
| 2026-05-04 21:14 | 37.71659 | -7.72571 | 37080 ft | 431 kts | 201° |
| 2026-05-04 21:15 | 37.65816 | -7.74311 | 37075 ft | 431 kts | 201° |
| 2026-05-04 21:15 | 37.59983 | -7.76044 | 37076 ft | 431 kts | 201° |
| 2026-05-04 21:16 | 37.54170 | -7.77767 | 37073 ft | 430 kts | 201° |
| 2026-05-04 21:16 | 37.48322 | -7.79502 | 37074 ft | 432 kts | 201° |
| 2026-05-04 21:17 | 37.42498 | -7.81225 | 37080 ft | 431 kts | 201° |
| 2026-05-04 21:17 | 37.36641 | -7.82955 | 37073 ft | 432 kts | 201° |
| 2026-05-04 21:18 | 37.30792 | -7.84683 | 37076 ft | 433 kts | 201° |
| 2026-05-04 21:18 | 37.24969 | -7.86394 | 37074 ft | 432 kts | 201° |
| 2026-05-04 21:19 | 37.19125 | -7.88111 | 37085 ft | 432 kts | 201° |
| 2026-05-04 21:19 | 37.13305 | -7.89816 | 37088 ft | 430 kts | 201° |
| 2026-05-04 21:20 | 37.07461 | -7.91526 | 37091 ft | 429 kts | 201° |
| 2026-05-04 21:20 | 37.01649 | -7.93229 | 37105 ft | 430 kts | 201° |
| 2026-05-04 21:21 | 36.95826 | -7.94930 | 37089 ft | 429 kts | 201° |
| 2026-05-04 21:21 | 36.90005 | -7.96630 | 37087 ft | 432 kts | 201° |
| 2026-05-04 21:22 | 36.84169 | -7.98330 | 37096 ft | 431 kts | 201° |
| 2026-05-04 21:22 | 36.78306 | -7.99855 | 37069 ft | 436 kts | 197° |
| 2026-05-04 21:23 | 36.72121 | -8.00063 | 37085 ft | 452 kts | 185° |
| 2026-05-04 21:23 | 36.65868 | -7.99239 | 37082 ft | 455 kts | 181° |
| 2026-05-04 21:24 | 36.59599 | -7.98164 | 37076 ft | 454 kts | 180° |
| 2026-05-04 21:24 | 36.53323 | -7.97100 | 37084 ft | 456 kts | 181° |
| 2026-05-04 21:25 | 36.47060 | -7.96082 | 37083 ft | 453 kts | 181° |
| 2026-05-04 21:25 | 36.40792 | -7.95097 | 37081 ft | 456 kts | 181° |
| 2026-05-04 21:26 | 36.34481 | -7.94122 | 37075 ft | 455 kts | 181° |
| 2026-05-04 21:26 | 36.28215 | -7.93156 | 37089 ft | 455 kts | 181° |
| 2026-05-04 21:27 | 36.21962 | -7.92199 | 37081 ft | 455 kts | 181° |
| 2026-05-04 21:27 | 36.15698 | -7.91238 | 37092 ft | 454 kts | 181° |
| 2026-05-04 21:28 | 36.09446 | -7.90285 | 37088 ft | 453 kts | 181° |
| 2026-05-04 21:28 | 36.03154 | -7.89328 | 37082 ft | 454 kts | 181° |
| 2026-05-04 21:29 | 35.96884 | -7.88375 | 37090 ft | 456 kts | 181° |
| 2026-05-04 21:29 | 35.90588 | -7.87620 | 37090 ft | 451 kts | 184° |
| 2026-05-04 21:30 | 35.84355 | -7.87090 | 37085 ft | 451 kts | 185° |
| 2026-05-04 21:30 | 35.78114 | -7.86581 | 37095 ft | 449 kts | 184° |
| 2026-05-04 21:31 | 35.68736 | -7.85783 | 37087 ft | 451 kts | 184° |
| 2026-05-04 21:32 | 35.62472 | -7.85229 | 37086 ft | 449 kts | 184° |
| 2026-05-04 21:32 | 35.56268 | -7.84675 | 37079 ft | 450 kts | 184° |
| 2026-05-04 21:33 | 35.50007 | -7.84112 | 37093 ft | 450 kts | 184° |
| 2026-05-04 21:33 | 35.43797 | -7.83554 | 37092 ft | 449 kts | 184° |
| 2026-05-04 21:34 | 35.37571 | -7.83000 | 37079 ft | 448 kts | 184° |
| 2026-05-04 21:34 | 35.31337 | -7.82475 | 37092 ft | 449 kts | 184° |
| 2026-05-04 21:35 | 35.25118 | -7.81955 | 37093 ft | 450 kts | 184° |
| 2026-05-04 21:35 | 35.18896 | -7.81435 | 37083 ft | 447 kts | 184° |
| 2026-05-04 21:36 | 35.12691 | -7.80915 | 37092 ft | 447 kts | 184° |
| 2026-05-04 21:36 | 35.06452 | -7.80392 | 37086 ft | 448 kts | 184° |
| 2026-05-04 21:37 | 35.00229 | -7.79871 | 37089 ft | 448 kts | 184° |
| 2026-05-04 21:37 | 34.94033 | -7.79350 | 37083 ft | 446 kts | 184° |
| 2026-05-04 21:38 | 34.87829 | -7.78834 | 37090 ft | 448 kts | 184° |
| 2026-05-04 21:38 | 34.81605 | -7.78313 | 37098 ft | 445 kts | 184° |
| 2026-05-04 21:39 | 34.75431 | -7.77799 | 37082 ft | 448 kts | 184° |
| 2026-05-04 21:39 | 34.69220 | -7.77312 | 37073 ft | 446 kts | 184° |
| 2026-05-04 21:40 | 34.63014 | -7.76884 | 37077 ft | 446 kts | 184° |
| 2026-05-04 21:40 | 34.56827 | -7.76464 | 37083 ft | 446 kts | 184° |
| 2026-05-04 21:41 | 34.50681 | -7.76046 | 37102 ft | 445 kts | 184° |
| 2026-05-04 21:41 | 34.44467 | -7.75620 | 37089 ft | 446 kts | 184° |
| 2026-05-04 21:42 | 34.38266 | -7.75193 | 37086 ft | 445 kts | 184° |
| 2026-05-04 21:42 | 34.32116 | -7.74763 | 37090 ft | 444 kts | 184° |
| 2026-05-04 21:43 | 34.25928 | -7.74335 | 37092 ft | 444 kts | 184° |
| 2026-05-04 21:43 | 34.19711 | -7.73906 | 37089 ft | 445 kts | 184° |
| 2026-05-04 21:44 | 34.13559 | -7.73419 | 37303 ft | 445 kts | 183° |
| 2026-05-04 21:44 | 34.10477 | -7.73132 | 37072 ft | 440 kts | 182° |
| 2026-05-04 21:44 | 34.07406 | -7.72836 | 37086 ft | 444 kts | 183° |
| 2026-05-04 21:45 | 34.01213 | -7.72245 | 37338 ft | 446 kts | 183° |
| 2026-05-04 21:45 | 33.98107 | -7.71952 | 37106 ft | 445 kts | 183° |
| 2026-05-04 21:45 | 33.95037 | -7.71659 | 37088 ft | 441 kts | 183° |
| 2026-05-04 21:46 | 33.88884 | -7.71085 | 37093 ft | 444 kts | 183° |
| 2026-05-04 21:46 | 33.82742 | -7.70519 | 37084 ft | 443 kts | 183° |
| 2026-05-04 21:47 | 33.76557 | -7.69950 | 37089 ft | 444 kts | 183° |
| 2026-05-04 21:47 | 33.70448 | -7.69391 | 37070 ft | 444 kts | 183° |
| 2026-05-04 21:48 | 33.64292 | -7.68826 | 37099 ft | 442 kts | 183° |
| 2026-05-04 21:48 | 33.58145 | -7.68274 | 37079 ft | 441 kts | 184° |
| 2026-05-04 21:49 | 33.52129 | -7.68640 | 37105 ft | 427 kts | 200° |
| 2026-05-04 21:49 | 33.46718 | -7.71161 | 37120 ft | 413 kts | 213° |
| 2026-05-04 21:50 | 33.41715 | -7.74408 | 37117 ft | 408 kts | 216° |
| 2026-05-04 21:50 | 33.36796 | -7.77751 | 37124 ft | 409 kts | 216° |
| 2026-05-04 21:51 | 33.31817 | -7.81111 | 37112 ft | 410 kts | 215° |
| 2026-05-04 21:51 | 33.26848 | -7.84426 | 37102 ft | 410 kts | 215° |
| 2026-05-04 21:52 | 33.21883 | -7.87715 | 37083 ft | 409 kts | 215° |
| 2026-05-04 21:52 | 33.16909 | -7.91001 | 37082 ft | 410 kts | 215° |
| 2026-05-04 21:53 | 33.11902 | -7.94299 | 37087 ft | 410 kts | 215° |
| 2026-05-04 21:53 | 33.06933 | -7.97566 | 37070 ft | 409 kts | 215° |
| 2026-05-04 21:54 | 33.01952 | -8.00837 | 37069 ft | 408 kts | 215° |
| 2026-05-04 21:54 | 32.97007 | -8.04081 | 37068 ft | 408 kts | 215° |
| 2026-05-04 21:55 | 32.91982 | -8.07219 | 37076 ft | 412 kts | 211° |
| 2026-05-04 21:55 | 32.86652 | -8.09832 | 37069 ft | 412 kts | 208° |
| 2026-05-04 21:56 | 32.81285 | -8.12248 | 37078 ft | 413 kts | 208° |
| 2026-05-04 21:56 | 32.75907 | -8.14692 | 37068 ft | 413 kts | 208° |
| 2026-05-04 21:57 | 32.70567 | -8.17149 | 37068 ft | 411 kts | 208° |
| 2026-05-04 21:57 | 32.65241 | -8.19619 | 37071 ft | 412 kts | 208° |
| 2026-05-04 21:58 | 32.59922 | -8.22091 | 37075 ft | 411 kts | 208° |
| 2026-05-04 21:58 | 32.54593 | -8.24567 | 37073 ft | 410 kts | 208° |
| 2026-05-04 21:59 | 32.49286 | -8.27033 | 37074 ft | 413 kts | 209° |
| 2026-05-04 21:59 | 32.43978 | -8.29490 | 37074 ft | 408 kts | 209° |
| 2026-05-04 22:00 | 32.38692 | -8.31936 | 37075 ft | 409 kts | 209° |
| 2026-05-04 22:00 | 32.33387 | -8.34388 | 37072 ft | 407 kts | 209° |
| 2026-05-04 22:01 | 32.28124 | -8.36819 | 37070 ft | 405 kts | 209° |
| 2026-05-04 22:01 | 32.22872 | -8.39243 | 37075 ft | 408 kts | 209° |
| 2026-05-04 22:02 | 32.17565 | -8.41691 | 37074 ft | 408 kts | 209° |
| 2026-05-04 22:02 | 32.12320 | -8.44099 | 37074 ft | 403 kts | 209° |
| 2026-05-04 22:03 | 32.07125 | -8.46570 | 37074 ft | 401 kts | 212° |
| 2026-05-04 22:03 | 32.02093 | -8.49427 | 37071 ft | 399 kts | 214° |
| 2026-05-04 22:04 | 31.97135 | -8.52348 | 37072 ft | 400 kts | 214° |
| 2026-05-04 22:04 | 31.92156 | -8.55246 | 37073 ft | 398 kts | 213° |
| 2026-05-04 22:05 | 31.87193 | -8.58100 | 37073 ft | 398 kts | 213° |
| 2026-05-04 22:05 | 31.82204 | -8.60947 | 37074 ft | 398 kts | 213° |
| 2026-05-04 22:06 | 31.77236 | -8.63775 | 37068 ft | 399 kts | 213° |
| 2026-05-04 22:06 | 31.74751 | -8.65182 | 36767 ft | 393 kts | 213° |
| 2026-05-04 22:06 | 31.72304 | -8.66563 | 36318 ft | 387 kts | 213° |
| 2026-05-04 22:06 | 31.69880 | -8.67934 | 35785 ft | 384 kts | 213° |
| 2026-05-04 22:07 | 31.67472 | -8.69300 | 35120 ft | 386 kts | 213° |
| 2026-05-04 22:07 | 31.65058 | -8.70671 | 34460 ft | 387 kts | 213° |
| 2026-05-04 22:07 | 31.62639 | -8.72044 | 33776 ft | 388 kts | 213° |
| 2026-05-04 22:07 | 31.60220 | -8.73415 | 33116 ft | 390 kts | 213° |
| 2026-05-04 22:08 | 31.57771 | -8.74802 | 32405 ft | 392 kts | 213° |
| 2026-05-04 22:08 | 31.55299 | -8.76202 | 31879 ft | 397 kts | 212° |
| 2026-05-04 22:08 | 31.52781 | -8.77613 | 31372 ft | 405 kts | 211° |
| 2026-05-04 22:08 | 31.50155 | -8.78797 | 30914 ft | 406 kts | 205° |
| 2026-05-04 22:09 | 31.47434 | -8.79671 | 30284 ft | 409 kts | 200° |
| 2026-05-04 22:09 | 31.44648 | -8.80390 | 29548 ft | 411 kts | 199° |
| 2026-05-04 22:09 | 31.41830 | -8.81047 | 29054 ft | 408 kts | 198° |
| 2026-05-04 22:09 | 31.39089 | -8.81676 | 28455 ft | 405 kts | 198° |
| 2026-05-04 22:10 | 31.36323 | -8.82328 | 27916 ft | 402 kts | 199° |
| 2026-05-04 22:10 | 31.33589 | -8.82994 | 27347 ft | 398 kts | 199° |
| 2026-05-04 22:10 | 31.30896 | -8.83668 | 26495 ft | 395 kts | 198° |
| 2026-05-04 22:10 | 31.28226 | -8.84350 | 25680 ft | 393 kts | 198° |
| 2026-05-04 22:11 | 31.25601 | -8.85029 | 24982 ft | 390 kts | 198° |
| 2026-05-04 22:11 | 31.22959 | -8.85716 | 24232 ft | 388 kts | 198° |
| 2026-05-04 22:11 | 31.20330 | -8.86403 | 23551 ft | 384 kts | 198° |
| 2026-05-04 22:11 | 31.17734 | -8.87083 | 22830 ft | 381 kts | 198° |
| 2026-05-04 22:12 | 31.15171 | -8.87753 | 22115 ft | 377 kts | 198° |
| 2026-05-04 22:12 | 31.12628 | -8.88418 | 21428 ft | 374 kts | 198° |
| 2026-05-04 22:12 | 31.10105 | -8.89077 | 20770 ft | 369 kts | 198° |
| 2026-05-04 22:12 | 31.07636 | -8.89721 | 20043 ft | 366 kts | 198° |
| 2026-05-04 22:13 | 31.05157 | -8.90368 | 19360 ft | 362 kts | 198° |
| 2026-05-04 22:13 | 31.02709 | -8.91008 | 18647 ft | 359 kts | 198° |
| 2026-05-04 22:13 | 31.00295 | -8.91638 | 17955 ft | 355 kts | 198° |
| 2026-05-04 22:13 | 30.97915 | -8.92260 | 17225 ft | 352 kts | 198° |
| 2026-05-04 22:14 | 30.95526 | -8.92885 | 16556 ft | 351 kts | 198° |
| 2026-05-04 22:14 | 30.93148 | -8.93510 | 15915 ft | 353 kts | 198° |
| 2026-05-04 22:14 | 30.90748 | -8.94138 | 15367 ft | 352 kts | 198° |
| 2026-05-04 22:14 | 30.88366 | -8.94760 | 14821 ft | 351 kts | 197° |
| 2026-05-04 22:15 | 30.85986 | -8.95378 | 14265 ft | 350 kts | 198° |
| 2026-05-04 22:15 | 30.83620 | -8.95992 | 13733 ft | 349 kts | 197° |
| 2026-05-04 22:15 | 30.81255 | -8.96606 | 13160 ft | 344 kts | 197° |
| 2026-05-04 22:15 | 30.78952 | -8.97199 | 12691 ft | 334 kts | 197° |
| 2026-05-04 22:16 | 30.76694 | -8.97780 | 12173 ft | 328 kts | 197° |
| 2026-05-04 22:16 | 30.74437 | -8.98369 | 11625 ft | 334 kts | 196° |
| 2026-05-04 22:16 | 30.72166 | -8.98963 | 11104 ft | 334 kts | 196° |
| 2026-05-04 22:16 | 30.69891 | -8.99554 | 10664 ft | 331 kts | 196° |
| 2026-05-04 22:17 | 30.67667 | -9.00127 | 10472 ft | 319 kts | 196° |
| 2026-05-04 22:17 | 30.65539 | -9.00673 | 10349 ft | 307 kts | 196° |
| 2026-05-04 22:17 | 30.63528 | -9.01188 | 10150 ft | 292 kts | 197° |
| 2026-05-04 22:17 | 30.61564 | -9.01694 | 9791 ft | 283 kts | 197° |
| 2026-05-04 22:18 | 30.59674 | -9.02185 | 9422 ft | 276 kts | 197° |
| 2026-05-04 22:18 | 30.57791 | -9.02679 | 9074 ft | 283 kts | 197° |
| 2026-05-04 22:18 | 30.55844 | -9.03191 | 8741 ft | 288 kts | 196° |
| 2026-05-04 22:18 | 30.53887 | -9.03699 | 8339 ft | 289 kts | 197° |
| 2026-05-04 22:19 | 30.51921 | -9.04206 | 7933 ft | 288 kts | 195° |
| 2026-05-04 22:19 | 30.49961 | -9.04710 | 7581 ft | 286 kts | 195° |
| 2026-05-04 22:19 | 30.48019 | -9.05212 | 7228 ft | 285 kts | 194° |
| 2026-05-04 22:19 | 30.46095 | -9.05708 | 6930 ft | 287 kts | 193° |
| 2026-05-04 22:20 | 30.44132 | -9.06214 | 6493 ft | 291 kts | 193° |
| 2026-05-04 22:20 | 30.42141 | -9.06726 | 6086 ft | 291 kts | 192° |
| 2026-05-04 22:20 | 30.40172 | -9.07231 | 5803 ft | 287 kts | 193° |
| 2026-05-04 22:20 | 30.38238 | -9.07725 | 5433 ft | 285 kts | 194° |
| 2026-05-04 22:21 | 30.36326 | -9.08217 | 5187 ft | 274 kts | 194° |
| 2026-05-04 22:21 | 30.34525 | -9.08679 | 5153 ft | 255 kts | 194° |
| 2026-05-04 22:21 | 30.32841 | -9.09112 | 5103 ft | 239 kts | 194° |
| 2026-05-04 22:21 | 30.31304 | -9.09632 | 4974 ft | 228 kts | 210° |
| 2026-05-04 22:22 | 30.30150 | -9.10816 | 4667 ft | 220 kts | 243° |
| 2026-05-04 22:22 | 30.29778 | -9.12454 | 4510 ft | 206 kts | 278° |
| 2026-05-04 22:22 | 30.30249 | -9.13953 | 4513 ft | 196 kts | 304° |
| 2026-05-04 22:22 | 30.30997 | -9.15271 | 4375 ft | 195 kts | 302° |
| 2026-05-04 22:23 | 30.31508 | -9.16731 | 4140 ft | 196 kts | 284° |
| 2026-05-04 22:23 | 30.31661 | -9.18262 | 3875 ft | 194 kts | 276° |
| 2026-05-04 22:23 | 30.31717 | -9.19830 | 3544 ft | 193 kts | 274° |
| 2026-05-04 22:23 | 30.31762 | -9.21369 | 3325 ft | 191 kts | 274° |
| 2026-05-04 22:24 | 30.31803 | -9.22897 | 3074 ft | 189 kts | 274° |
| 2026-05-04 22:24 | 30.31841 | -9.24410 | 2813 ft | 188 kts | 274° |
| 2026-05-04 22:24 | 30.31880 | -9.25915 | 2561 ft | 182 kts | 274° |
| 2026-05-04 22:24 | 30.31914 | -9.27313 | 2308 ft | 171 kts | 274° |
| 2026-05-04 22:25 | 30.31949 | -9.28665 | 2089 ft | 164 kts | 274° |
| 2026-05-04 22:25 | 30.31985 | -9.29983 | 1872 ft | 165 kts | 274° |
| 2026-05-04 22:25 | 30.32015 | -9.31260 | 1692 ft | 153 kts | 273° |
| 2026-05-04 22:25 | 30.32046 | -9.32479 | 1450 ft | 150 kts | 272° |
| 2026-05-04 22:26 | 30.32077 | -9.33694 | 1257 ft | 150 kts | 271° |
| 2026-05-04 22:26 | 30.32106 | -9.34881 | 1056 ft | 149 kts | 271° |
| 2026-05-04 22:26 | 30.32136 | -9.36084 | 857 ft | 149 kts | 271° |
| 2026-05-04 22:26 | 30.32166 | -9.37278 | 662 ft | 149 kts | 270° |
| 2026-05-04 22:27 | 30.32206 | -9.38473 | 474 ft | 148 kts | 269° |
| 2026-05-04 22:27 | 30.32229 | -9.39655 | 289 ft | 148 kts | 269° |
| 2026-05-04 22:27 | 30.32249 | -9.40756 | 235 ft | 111 kts | 271° |
| 2026-05-04 22:27 | 30.32268 | -9.41414 | 222 ft | 56 kts | 270° |
| 2026-05-04 22:28 | 30.32294 | -9.41811 | 213 ft | 46 kts | 287° |
| 2026-05-04 22:28 | 30.32426 | -9.42104 | 209 ft | 26 kts | 300° |
| 2026-05-04 22:28 | 30.32514 | -9.42196 | 208 ft | 15 kts | 356° |
| 2026-05-04 22:28 | 30.32620 | -9.42189 | 208 ft | 14 kts | 3° |
| 2026-05-04 22:29 | 30.32720 | -9.42186 | 209 ft | 14 kts | 0° |
| 2026-05-04 22:29 | 30.32816 | -9.42168 | 209 ft | 14 kts | 43° |
| 2026-05-04 22:29 | 30.32832 | -9.42049 | 211 ft | 15 kts | 92° |
| 2026-05-04 22:29 | 30.32830 | -9.41931 | 212 ft | 14 kts | 91° |
| 2026-05-04 22:30 | 30.32827 | -9.41821 | 212 ft | 13 kts | 92° |
| 2026-05-04 22:30 | 30.32824 | -9.41712 | 214 ft | 13 kts | 91° |
| 2026-05-04 22:30 | 30.32822 | -9.41603 | 217 ft | 14 kts | 91° |
| 2026-05-04 22:30 | 30.32819 | -9.41488 | 219 ft | 13 kts | 91° |
| 2026-05-04 22:31 | 30.32817 | -9.41391 | 221 ft | 10 kts | 92° |
| 2026-05-04 22:31 | 30.32815 | -9.41312 | 222 ft | 8 kts | 92° |
| 2026-05-04 22:31 | 30.32822 | -9.41261 | 223 ft | 5 kts | 49° |
| 2026-05-04 22:31 | 30.32854 | -9.41251 | 223 ft | 4 kts | 1° |
| 2026-05-04 22:32 | 30.32880 | -9.41251 | 223 ft | 1 kts | 1° |
| 2026-05-04 22:32 | 30.32888 | -9.41251 | 223 ft | 0 kts | 1° |